Pagrindinis puslapis
METAR-TAF:

METAR-TAF

Oro uostai :

Pecos, Teksasas, Jungtinės Amerikos Valstijos

platuma: 31-22-56N, ilguma: 103-30-38W, Aukštis: 796 m

Dabartinis oras

Ataskaita buvo paskelbta 1 valandą ir 11 minutes, ne 22:35 UTC
Vėjas 4 kt iš Šiaurės
Temperatūra 35°C
Drėgmė 20%
Slėgis 1014 hPa
Matomumas: 16.1 km
Giedras dangus

METAR: KPEQ 242235Z AUTO 35004KT 10SM CLR 35/09 A2995 RMK AO2 T03490091

Laikas: 18:46 (23:46 UTC)

Prognozė

Ataskaita buvo paskelbta 6 valandos ir 10 minutes, ne 17:36 UTC
Prognozė galioja nuo 24 metu 18 UTC su 25 metu 18 UTC
Vėjas 7 kt iš Rytų
Matomumas: 10 km
Giedras dangus

TAF: KPEQ 241736Z 2418/2518 08007KT P6SM SKC

Orai ataskaitas ir orų prognozės (METAR, TAF).

turimą stotys yra geltonos ir raudonos taškus žemėlapyje.

Perkelti pele per norėdami pamatyti stoties vardą.

Tada spustelėkite, norėdami matyti oro stebėjimo ir prognozės.

Norėdami pakeisti žemėlapį: spustelėkite ant žalios mygtukų su juodo kryžiaus žemyn,; žalią mygtuką su brūkšneliu, jei norite nutolinti; arba žalių rodyklių gretimoms žemėlapius.


METAR-TAF: